Time;durP1;ratioP1;P1;durP2;ratioP2;P2;SDS_P1;SDS_P2;PMS_P1;PMS_P2;Temp;Humidity;BMP_temperature;BMP_pressure;BME280_temperature;BME280_humidity;BME280_pressure;Samples;Min_cycle;Max_cycle;Signal;HPM_P1;HPM_P2
2022/07/16 00:02:56;;;;;;;9.65;2.42;;;;;;;;;;5053204;28;20107;-49
2022/07/16 00:05:22;;;;;;;3.10;2.13;;;;;;;;;;5052891;28;20076;-46
2022/07/16 00:07:48;;;;;;;8.43;2.00;;;;;;;;;;5052525;28;20072;-46
2022/07/16 00:10:15;;;;;;;3.55;1.52;;;;;;;;;;5053158;28;20071;-47
2022/07/16 00:12:41;;;;;;;3.40;1.67;;;;;;;;;;5053127;28;20475;-47
2022/07/16 00:15:07;;;;;;;6.93;2.25;;;;;;;;;;5052945;28;20469;-46
2022/07/16 00:17:33;;;;;;;5.97;2.72;;;;;;;;;;5053380;28;20059;-46
2022/07/16 00:20:00;;;;;;;4.88;2.70;;;;;;;;;;5053612;28;20032;-46
2022/07/16 00:22:26;;;;;;;5.63;2.35;;;;;;;;;;5052775;28;20472;-48
2022/07/16 00:24:52;;;;;;;4.57;3.08;;;;;;;;;;5052964;28;20040;-47
2022/07/16 00:27:18;;;;;;;5.10;2.83;;;;;;;;;;5052680;28;20029;-46
2022/07/16 00:29:44;;;;;;;5.20;3.03;;;;;;;;;;5052664;28;20051;-49
2022/07/16 00:32:10;;;;;;;4.90;1.67;;;;;;;;;;5052659;28;20017;-46
2022/07/16 00:34:36;;;;;;;6.45;2.17;;;;;;;;;;5052358;28;20431;-47
2022/07/16 00:37:02;;;;;;;2.58;1.73;;;;;;;;;;5052814;28;20029;-46
2022/07/16 00:39:28;;;;;;;2.78;2.00;;;;;;;;;;5052990;28;20074;-46
2022/07/16 00:41:55;;;;;;;5.55;2.35;;;;;;;;;;5052553;28;20469;-47
2022/07/16 00:44:21;;;;;;;1.98;1.77;;;;;;;;;;5051381;28;20029;-47
2022/07/16 00:46:48;;;;;;;3.13;1.80;;;;;;;;;;5052492;28;20106;-46
2022/07/16 00:49:15;;;;;;;7.07;2.30;;;;;;;;;;5052740;28;20439;-47
2022/07/16 00:51:42;;;;;;;3.72;2.30;;;;;;;;;;5051344;28;20422;-46
2022/07/16 00:54:08;;;;;;;4.53;2.33;;;;;;;;;;5055092;28;20112;-46
2022/07/16 00:56:34;;;;;;;7.72;2.75;;;;;;;;;;5056286;28;20056;-47
2022/07/16 00:59:00;;;;;;;7.00;2.42;;;;;;;;;;5056119;28;20040;-46
2022/07/16 01:01:26;;;;;;;3.67;2.40;;;;;;;;;;5056087;28;20048;-46
2022/07/16 01:03:53;;;;;;;4.68;2.60;;;;;;;;;;5055897;28;20037;-46
2022/07/16 01:06:19;;;;;;;12.05;3.42;;;;;;;;;;5055651;28;20056;-46
2022/07/16 01:08:47;;;;;;;6.90;2.80;;;;;;;;;;5056387;28;20483;-46
2022/07/16 01:11:15;;;;;;;2.45;2.10;;;;;;;;;;5056325;28;20052;-46
2022/07/16 01:13:42;;;;;;;5.85;2.25;;;;;;;;;;5056107;28;20029;-45
2022/07/16 01:16:08;;;;;;;4.00;2.67;;;;;;;;;;5056157;28;20444;-48
2022/07/16 01:18:35;;;;;;;5.93;2.97;;;;;;;;;;5054662;28;20052;-46
2022/07/16 01:21:01;;;;;;;11.07;3.17;;;;;;;;;;5056023;28;20032;-45
2022/07/16 01:23:27;;;;;;;7.45;2.95;;;;;;;;;;5056142;28;20017;-46
2022/07/16 01:25:54;;;;;;;9.35;3.35;;;;;;;;;;5054942;28;20473;-49
2022/07/16 01:28:20;;;;;;;6.38;2.47;;;;;;;;;;5056457;28;20041;-49
2022/07/16 01:30:47;;;;;;;5.18;2.55;;;;;;;;;;5056146;28;20043;-47
2022/07/16 01:33:20;;;;;;;8.60;2.97;;;;;;;;;;5056097;28;20029;-46
2022/07/16 01:35:46;;;;;;;4.30;2.45;;;;;;;;;;5056388;28;20025;-47
2022/07/16 01:38:12;;;;;;;7.53;3.15;;;;;;;;;;5054686;28;20384;-46
2022/07/16 01:40:38;;;;;;;7.10;3.70;;;;;;;;;;5055882;28;20374;-47
2022/07/16 01:43:04;;;;;;;3.67;2.90;;;;;;;;;;5056193;28;20025;-47
2022/07/16 01:45:30;;;;;;;5.38;2.78;;;;;;;;;;5056287;28;20021;-46
2022/07/16 01:47:58;;;;;;;7.38;3.22;;;;;;;;;;5056142;28;20072;-48
2022/07/16 01:50:24;;;;;;;4.72;2.55;;;;;;;;;;5056044;28;20499;-47
2022/07/16 01:52:50;;;;;;;4.20;2.45;;;;;;;;;;5055758;28;20024;-47
2022/07/16 01:55:16;;;;;;;6.07;2.17;;;;;;;;;;5055758;28;20104;-46
2022/07/16 01:57:42;;;;;;;5.18;2.58;;;;;;;;;;5055724;28;20433;-46
2022/07/16 02:00:08;;;;;;;5.15;2.40;;;;;;;;;;5055559;28;20159;-47
2022/07/16 02:02:34;;;;;;;3.33;2.05;;;;;;;;;;5053951;28;20040;-47
2022/07/16 02:05:01;;;;;;;9.05;2.42;;;;;;;;;;5055033;28;20029;-48
2022/07/16 02:07:27;;;;;;;5.25;2.35;;;;;;;;;;5054900;28;20076;-46
2022/07/16 02:09:53;;;;;;;5.40;2.75;;;;;;;;;;5055008;28;20147;-48
2022/07/16 02:12:19;;;;;;;4.13;2.00;;;;;;;;;;5054964;28;20485;-47
2022/07/16 02:14:45;;;;;;;6.88;1.80;;;;;;;;;;5054932;28;20016;-47
2022/07/16 02:17:11;;;;;;;3.90;1.52;;;;;;;;;;5054960;28;20096;-47
2022/07/16 02:19:37;;;;;;;2.53;1.52;;;;;;;;;;5054704;28;20025;-47
2022/07/16 02:22:03;;;;;;;5.32;1.67;;;;;;;;;;5054605;28;20035;-46
2022/07/16 02:24:29;;;;;;;3.75;2.13;;;;;;;;;;5054573;28;20028;-45
2022/07/16 02:26:55;;;;;;;3.33;1.50;;;;;;;;;;5054474;28;20094;-46
2022/07/16 02:29:21;;;;;;;2.88;1.80;;;;;;;;;;5054740;28;20413;-48
2022/07/16 02:31:47;;;;;;;2.75;1.88;;;;;;;;;;5054674;28;20021;-44
2022/07/16 02:34:13;;;;;;;6.03;1.98;;;;;;;;;;5054425;28;20620;-46
2022/07/16 02:36:39;;;;;;;5.38;2.08;;;;;;;;;;5054314;28;20029;-47
2022/07/16 02:39:05;;;;;;;6.82;2.38;;;;;;;;;;5054345;28;20021;-45
2022/07/16 02:41:31;;;;;;;2.50;2.25;;;;;;;;;;5054330;28;20032;-47
2022/07/16 02:43:57;;;;;;;1.77;1.58;;;;;;;;;;5052887;28;20036;-47
2022/07/16 02:46:23;;;;;;;4.18;1.83;;;;;;;;;;5054409;28;20029;-45
2022/07/16 02:48:49;;;;;;;3.05;1.90;;;;;;;;;;5054076;28;20441;-46
2022/07/16 02:51:15;;;;;;;3.90;1.95;;;;;;;;;;5054313;28;20021;-45
2022/07/16 02:53:41;;;;;;;4.60;2.30;;;;;;;;;;5054014;28;20473;-47
2022/07/16 02:56:07;;;;;;;4.25;1.85;;;;;;;;;;5053973;28;20079;-46
2022/07/16 02:58:33;;;;;;;3.05;2.13;;;;;;;;;;5054197;28;20158;-45
2022/07/16 03:00:59;;;;;;;4.55;2.42;;;;;;;;;;5053972;28;20096;-49
2022/07/16 03:03:26;;;;;;;10.63;2.90;;;;;;;;;;5053827;28;20025;-46
2022/07/16 03:05:52;;;;;;;3.60;2.10;;;;;;;;;;5053537;28;20326;-46
2022/07/16 03:08:18;;;;;;;7.35;2.15;;;;;;;;;;5053955;28;20122;-47
2022/07/16 03:10:44;;;;;;;2.88;1.92;;;;;;;;;;5052943;28;20495;-47
2022/07/16 03:13:10;;;;;;;6.07;1.83;;;;;;;;;;5053835;28;20025;-47
2022/07/16 03:15:36;;;;;;;4.38;2.40;;;;;;;;;;5053512;28;20021;-48
2022/07/16 03:18:02;;;;;;;3.42;2.22;;;;;;;;;;5053590;28;20092;-47
2022/07/16 03:20:28;;;;;;;4.80;1.80;;;;;;;;;;5052197;28;20033;-47
2022/07/16 03:22:54;;;;;;;8.35;2.08;;;;;;;;;;5053529;28;20514;-47
2022/07/16 03:25:20;;;;;;;5.15;2.35;;;;;;;;;;5053424;28;20451;-47
2022/07/16 03:27:46;;;;;;;5.88;2.15;;;;;;;;;;5053508;28;20461;-46
2022/07/16 20:06:01;;;;;;;5.50;1.42;;;;;;;;;;5111885;27;20437;-46
2022/07/16 20:08:27;;;;;;;4.53;1.52;;;;;;;;;;5127046;28;20055;-47
2022/07/16 20:10:53;;;;;;;5.63;1.48;;;;;;;;;;5127224;28;20460;-47
2022/07/16 20:13:19;;;;;;;2.92;1.20;;;;;;;;;;5110972;28;20051;-47
2022/07/16 20:15:45;;;;;;;5.07;1.63;;;;;;;;;;5110972;28;20024;-47
2022/07/16 20:18:11;;;;;;;4.65;1.40;;;;;;;;;;5110665;28;20071;-46
2022/07/16 20:20:38;;;;;;;5.40;1.10;;;;;;;;;;5111010;28;20361;-46
2022/07/16 20:23:04;;;;;;;4.97;1.30;;;;;;;;;;5110963;28;20023;-47
2022/07/16 20:25:30;;;;;;;3.45;1.17;;;;;;;;;;5126431;28;20364;-47
2022/07/16 20:27:56;;;;;;;3.67;0.93;;;;;;;;;;5110908;28;20027;-47
2022/07/16 20:30:27;;;;;;;4.65;1.55;;;;;;;;;;5126463;28;20097;-46
2022/07/16 20:32:53;;;;;;;3.63;1.33;;;;;;;;;;5110892;28;20505;-48
2022/07/16 20:35:19;;;;;;;3.78;1.60;;;;;;;;;;5110473;28;20024;-47
2022/07/16 20:37:45;;;;;;;7.13;1.55;;;;;;;;;;5110687;28;20027;-46
2022/07/16 20:40:11;;;;;;;3.63;1.50;;;;;;;;;;5110356;28;20560;-47
2022/07/16 20:42:38;;;;;;;6.22;1.45;;;;;;;;;;5109147;28;20016;-47
2022/07/16 20:45:05;;;;;;;5.20;2.63;;;;;;;;;;5108932;28;20491;-47
2022/07/16 20:47:31;;;;;;;8.43;1.75;;;;;;;;;;5109112;28;20024;-46
2022/07/16 20:49:57;;;;;;;4.53;2.13;;;;;;;;;;5111184;28;20063;-48
2022/07/16 20:52:24;;;;;;;7.72;1.85;;;;;;;;;;5110842;28;20024;-48
2022/07/16 20:54:50;;;;;;;3.15;1.40;;;;;;;;;;5110421;28;20024;-46
2022/07/16 20:57:17;;;;;;;5.25;3.17;;;;;;;;;;5109994;28;20383;-47
2022/07/16 20:59:43;;;;;;;5.05;1.42;;;;;;;;;;5110061;28;20475;-48
2022/07/16 21:02:09;;;;;;;11.77;1.88;;;;;;;;;;5110185;28;20034;-47
2022/07/16 21:04:35;;;;;;;5.45;1.52;;;;;;;;;;5109683;28;20044;-50
2022/07/16 21:07:01;;;;;;;2.80;1.23;;;;;;;;;;5110034;28;20024;-47
2022/07/16 21:09:29;;;;;;;8.10;2.15;;;;;;;;;;5109750;28;20121;-47
2022/07/16 21:11:55;;;;;;;3.70;1.10;;;;;;;;;;5109952;28;20154;-47
2022/07/16 21:14:22;;;;;;;2.70;1.05;;;;;;;;;;5109910;28;20047;-45
2022/07/16 21:16:48;;;;;;;4.65;1.42;;;;;;;;;;5099382;28;20054;-46
2022/07/16 21:19:14;;;;;;;6.10;1.00;;;;;;;;;;5095947;28;20031;-47
2022/07/16 21:21:41;;;;;;;5.13;2.22;;;;;;;;;;5095982;28;20023;-47
2022/07/16 21:24:07;;;;;;;5.57;1.45;;;;;;;;;;5095815;28;20039;-47
2022/07/16 21:26:33;;;;;;;2.88;1.20;;;;;;;;;;5096068;28;20476;-46
2022/07/16 21:28:59;;;;;;;9.77;1.70;;;;;;;;;;5095906;28;20027;-48
2022/07/16 21:31:25;;;;;;;7.18;1.63;;;;;;;;;;5096210;28;20024;-48
2022/07/16 21:33:51;;;;;;;4.68;1.80;;;;;;;;;;5095990;28;20114;-47
2022/07/16 21:36:17;;;;;;;5.25;1.10;;;;;;;;;;5095086;28;20368;-47
2022/07/16 21:38:43;;;;;;;3.17;1.55;;;;;;;;;;5095897;28;20024;-47
2022/07/16 21:41:09;;;;;;;4.25;1.27;;;;;;;;;;5095963;28;20020;-46
2022/07/16 21:43:35;;;;;;;3.75;1.55;;;;;;;;;;5094409;28;20028;-47
2022/07/16 21:46:01;;;;;;;6.32;1.60;;;;;;;;;;5095548;28;20020;-48
2022/07/16 21:48:28;;;;;;;2.25;1.38;;;;;;;;;;5095531;28;20021;-46
2022/07/16 21:50:54;;;;;;;3.60;1.45;;;;;;;;;;5095464;28;20365;-47
2022/07/16 21:53:20;;;;;;;3.63;1.80;;;;;;;;;;5095817;28;20024;-48
2022/07/16 21:55:46;;;;;;;4.40;1.30;;;;;;;;;;5096070;28;20028;-47
2022/07/16 21:58:12;;;;;;;5.05;1.40;;;;;;;;;;5095846;28;20158;-48
2022/07/16 22:00:39;;;;;;;5.25;1.50;;;;;;;;;;5096181;28;20056;-49
2022/07/16 22:03:05;;;;;;;4.63;1.10;;;;;;;;;;5095520;28;20387;-48
2022/07/16 22:05:32;;;;;;;2.75;1.10;;;;;;;;;;5094947;28;20044;-48
2022/07/16 22:07:58;;;;;;;6.45;1.88;;;;;;;;;;5094977;28;20035;-46
2022/07/16 22:10:24;;;;;;;6.43;1.42;;;;;;;;;;5095319;28;20055;-46
2022/07/16 22:12:50;;;;;;;4.85;1.67;;;;;;;;;;5095059;28;20028;-46
2022/07/16 22:15:17;;;;;;;6.30;2.85;;;;;;;;;;5094937;28;20059;-46
2022/07/16 22:17:43;;;;;;;4.07;1.40;;;;;;;;;;5095163;28;20028;-46
2022/07/16 22:22:54;;;;;;;4.68;1.33;;;;;;;;;;5095123;28;20039;-46
2022/07/16 22:25:20;;;;;;;4.05;1.70;;;;;;;;;;5094985;28;20028;-48
2022/07/16 22:27:46;;;;;;;12.00;3.15;;;;;;;;;;5092540;28;20028;-47
2022/07/16 22:30:13;;;;;;;5.75;2.40;;;;;;;;;;5094690;28;20464;-47
2022/07/16 22:32:39;;;;;;;3.83;1.92;;;;;;;;;;5095131;28;20047;-48
2022/07/16 22:35:05;;;;;;;3.00;1.30;;;;;;;;;;5094857;28;20035;-45
2022/07/16 22:37:31;;;;;;;4.55;2.10;;;;;;;;;;5094774;28;20506;-47
2022/07/16 22:40:00;;;;;;;6.00;1.60;;;;;;;;;;5094598;28;20028;-48
2022/07/16 22:42:26;;;;;;;5.53;1.83;;;;;;;;;;5094434;28;20025;-45
2022/07/16 22:44:52;;;;;;;9.18;2.95;;;;;;;;;;5094442;28;20484;-46
2022/07/16 22:47:18;;;;;;;7.28;1.33;;;;;;;;;;5093046;28;20112;-46
2022/07/16 22:49:44;;;;;;;2.45;1.73;;;;;;;;;;5094746;28;20113;-46
2022/07/16 22:52:10;;;;;;;7.53;2.17;;;;;;;;;;5094742;28;20028;-46
2022/07/16 22:54:36;;;;;;;3.42;1.40;;;;;;;;;;5094500;28;20024;-47
2022/07/16 22:57:02;;;;;;;3.88;1.60;;;;;;;;;;5094247;28;20028;-47
2022/07/16 22:59:28;;;;;;;4.18;1.30;;;;;;;;;;5092819;28;20028;-53
2022/07/16 23:01:54;;;;;;;4.95;1.33;;;;;;;;;;5094413;28;20031;-47
2022/07/16 23:04:20;;;;;;;4.07;1.65;;;;;;;;;;5094081;28;20044;-45
2022/07/16 23:06:46;;;;;;;3.70;1.25;;;;;;;;;;5094008;28;20046;-48
2022/07/16 23:09:12;;;;;;;4.80;1.35;;;;;;;;;;5094275;28;20426;-47
2022/07/16 23:11:38;;;;;;;4.05;2.20;;;;;;;;;;5093890;28;20417;-50
2022/07/16 23:14:04;;;;;;;4.53;1.70;;;;;;;;;;5094120;28;20028;-48
2022/07/16 23:16:30;;;;;;;6.72;2.10;;;;;;;;;;5094045;28;20031;-48
2022/07/16 23:18:56;;;;;;;5.28;1.63;;;;;;;;;;5093719;28;20024;-46
2022/07/16 23:21:22;;;;;;;6.90;1.55;;;;;;;;;;5093798;28;20032;-46
2022/07/16 23:23:48;;;;;;;5.10;1.38;;;;;;;;;;5093710;28;20118;-46
2022/07/16 23:26:14;;;;;;;3.00;1.38;;;;;;;;;;5093695;28;20024;-47
2022/07/16 23:28:40;;;;;;;7.10;1.30;;;;;;;;;;5093859;28;20020;-46
2022/07/16 23:31:06;;;;;;;3.50;1.65;;;;;;;;;;5093647;28;20083;-46
2022/07/16 23:33:32;;;;;;;3.85;1.73;;;;;;;;;;5093591;28;20107;-46
2022/07/16 23:35:58;;;;;;;3.53;1.40;;;;;;;;;;5093426;28;20048;-47
2022/07/16 23:38:24;;;;;;;4.00;1.45;;;;;;;;;;5092053;28;20523;-46
2022/07/16 23:40:50;;;;;;;6.68;1.48;;;;;;;;;;5093326;28;20035;-45
2022/07/16 23:43:17;;;;;;;3.55;1.42;;;;;;;;;;5093680;28;20024;-46
2022/07/16 23:45:43;;;;;;;3.67;1.80;;;;;;;;;;5093598;28;20487;-46
2022/07/16 23:48:09;;;;;;;4.28;1.40;;;;;;;;;;5092131;28;20430;-45
2022/07/16 23:50:36;;;;;;;5.78;1.40;;;;;;;;;;5093417;28;20030;-46
2022/07/16 23:53:02;;;;;;;3.85;1.90;;;;;;;;;;5093495;28;20031;-45
2022/07/16 23:55:28;;;;;;;3.10;1.33;;;;;;;;;;5093456;28;20457;-47
2022/07/16 23:57:54;;;;;;;3.80;1.33;;;;;;;;;;5091917;28;20024;-47
